sensor_id;sensor_type;location;lat;lon;timestamp;pressure;altitude;pressure_sealevel;temperature;humidity
69848;BME280;57143;55.940;37.496;2023-04-30T00:01:28;98104.06;;;4.33;100.00
69848;BME280;57143;55.940;37.496;2023-04-30T00:03:56;98125.47;;;4.40;100.00
69848;BME280;57143;55.940;37.496;2023-04-30T00:06:23;98122.41;;;4.36;100.00
69848;BME280;57143;55.940;37.496;2023-04-30T00:08:50;98123.66;;;4.34;100.00
69848;BME280;57143;55.940;37.496;2023-04-30T00:11:17;98112.97;;;4.27;100.00
69848;BME280;57143;55.940;37.496;2023-04-30T00:13:44;98117.06;;;4.30;100.00
69848;BME280;57143;55.940;37.496;2023-04-30T00:16:11;98103.88;;;4.28;100.00
69848;BME280;57143;55.940;37.496;2023-04-30T00:18:40;98102.03;;;4.29;100.00
69848;BME280;57143;55.940;37.496;2023-04-30T00:21:07;98089.28;;;4.24;100.00
69848;BME280;57143;55.940;37.496;2023-04-30T00:23:34;98081.25;;;4.18;100.00
69848;BME280;57143;55.940;37.496;2023-04-30T00:26:01;98083.34;;;4.16;100.00
69848;BME280;57143;55.940;37.496;2023-04-30T00:28:29;98069.97;;;4.16;100.00
69848;BME280;57143;55.940;37.496;2023-04-30T00:30:56;98056.78;;;4.08;100.00
69848;BME280;57143;55.940;37.496;2023-04-30T00:33:23;98051.66;;;4.06;100.00
69848;BME280;57143;55.940;37.496;2023-04-30T00:35:51;98052.69;;;4.05;100.00
69848;BME280;57143;55.940;37.496;2023-04-30T00:38:19;98049.63;;;4.02;100.00
69848;BME280;57143;55.940;37.496;2023-04-30T00:40:46;98044.91;;;3.97;100.00
69848;BME280;57143;55.940;37.496;2023-04-30T00:43:13;98038.13;;;3.95;100.00
69848;BME280;57143;55.940;37.496;2023-04-30T00:45:40;98027.69;;;3.80;100.00
69848;BME280;57143;55.940;37.496;2023-04-30T00:48:07;98042.31;;;3.84;100.00
69848;BME280;57143;55.940;37.496;2023-04-30T00:50:35;98037.59;;;3.80;100.00
69848;BME280;57143;55.940;37.496;2023-04-30T00:53:04;98033.88;;;3.81;100.00
69848;BME280;57143;55.940;37.496;2023-04-30T00:55:31;98023.16;;;3.81;100.00
69848;BME280;57143;55.940;37.496;2023-04-30T00:57:59;98003.13;;;3.83;100.00
69848;BME280;57143;55.940;37.496;2023-04-30T01:00:26;97992.00;;;3.86;100.00
69848;BME280;57143;55.940;37.496;2023-04-30T01:02:54;97976.16;;;3.85;100.00
69848;BME280;57143;55.940;37.496;2023-04-30T01:05:22;97969.13;;;3.84;100.00
69848;BME280;57143;55.940;37.496;2023-04-30T01:07:49;97937.69;;;3.73;100.00
69848;BME280;57143;55.940;37.496;2023-04-30T01:10:18;97929.16;;;3.82;100.00
69848;BME280;57143;55.940;37.496;2023-04-30T01:12:53;97926.47;;;3.82;100.00
69848;BME280;57143;55.940;37.496;2023-04-30T01:15:26;97916.81;;;3.81;100.00
69848;BME280;57143;55.940;37.496;2023-04-30T01:17:56;97896.41;;;3.80;100.00
69848;BME280;57143;55.940;37.496;2023-04-30T01:20:28;97877.47;;;3.75;100.00
69848;BME280;57143;55.940;37.496;2023-04-30T01:23:05;97867.59;;;3.76;100.00
69848;BME280;57143;55.940;37.496;2023-04-30T01:25:52;97854.66;;;3.73;100.00
69848;BME280;57143;55.940;37.496;2023-04-30T01:28:27;97845.63;;;3.67;100.00
69848;BME280;57143;55.940;37.496;2023-04-30T01:30:54;97848.06;;;3.69;100.00
69848;BME280;57143;55.940;37.496;2023-04-30T01:33:21;97827.09;;;3.66;100.00
69848;BME280;57143;55.940;37.496;2023-04-30T01:35:57;97767.56;;;3.39;100.00
69848;BME280;57143;55.940;37.496;2023-04-30T01:38:42;97734.88;;;3.55;100.00
69848;BME280;57143;55.940;37.496;2023-04-30T01:41:19;97667.69;;;3.57;100.00
69848;BME280;57143;55.940;37.496;2023-04-30T01:44:02;97597.78;;;3.46;100.00
69848;BME280;57143;55.940;37.496;2023-04-30T01:46:32;97546.53;;;3.43;100.00
69848;BME280;57143;55.940;37.496;2023-04-30T01:49:19;97429.88;;;3.47;100.00
69848;BME280;57143;55.940;37.496;2023-04-30T01:51:47;97324.31;;;3.54;100.00
69848;BME280;57143;55.940;37.496;2023-04-30T01:54:24;97230.94;;;3.58;100.00
69848;BME280;57143;55.940;37.496;2023-04-30T01:57:00;97164.47;;;3.55;100.00
69848;BME280;57143;55.940;37.496;2023-04-30T01:59:33;97099.25;;;3.61;100.00
69848;BME280;57143;55.940;37.496;2023-04-30T02:02:02;97202.28;;;3.47;100.00
69848;BME280;57143;55.940;37.496;2023-04-30T02:04:29;97298.13;;;3.68;100.00
69848;BME280;57143;55.940;37.496;2023-04-30T02:06:57;97238.38;;;3.68;100.00
69848;BME280;57143;55.940;37.496;2023-04-30T02:09:24;97211.59;;;3.79;100.00
69848;BME280;57143;55.940;37.496;2023-04-30T02:11:51;97190.53;;;4.11;100.00
69848;BME280;57143;55.940;37.496;2023-04-30T02:14:18;97111.84;;;4.78;100.00
69848;BME280;57143;55.940;37.496;2023-04-30T02:17:07;97018.03;;;5.43;100.00
69848;BME280;57143;55.940;37.496;2023-04-30T02:19:34;96950.84;;;6.18;100.00
69848;BME280;57143;55.940;37.496;2023-04-30T02:22:02;96915.91;;;6.64;100.00
69848;BME280;57143;55.940;37.496;2023-04-30T02:24:29;96896.44;;;7.04;100.00
69848;BME280;57143;55.940;37.496;2023-04-30T02:26:56;96901.47;;;7.52;100.00
69848;BME280;57143;55.940;37.496;2023-04-30T02:29:23;96915.00;;;8.02;100.00
69848;BME280;57143;55.940;37.496;2023-04-30T02:31:51;96973.31;;;8.34;100.00
69848;BME280;57143;55.940;37.496;2023-04-30T02:34:19;97099.38;;;8.38;100.00
69848;BME280;57143;55.940;37.496;2023-04-30T02:36:46;97217.75;;;8.91;100.00
69848;BME280;57143;55.940;37.496;2023-04-30T02:39:13;97384.88;;;9.45;100.00
69848;BME280;57143;55.940;37.496;2023-04-30T02:41:41;97628.09;;;9.24;100.00
69848;BME280;57143;55.940;37.496;2023-04-30T02:44:08;97830.59;;;9.31;100.00
69848;BME280;57143;55.940;37.496;2023-04-30T02:46:35;98019.84;;;9.31;100.00
69848;BME280;57143;55.940;37.496;2023-04-30T02:49:02;98161.63;;;9.57;100.00
69848;BME280;57143;55.940;37.496;2023-04-30T02:51:31;98262.84;;;9.94;100.00
69848;BME280;57143;55.940;37.496;2023-04-30T02:53:58;98360.28;;;10.10;100.00
69848;BME280;57143;55.940;37.496;2023-04-30T02:56:25;98422.84;;;9.53;100.00
69848;BME280;57143;55.940;37.496;2023-04-30T02:58:53;98423.47;;;10.16;100.00
69848;BME280;57143;55.940;37.496;2023-04-30T03:01:20;98339.84;;;10.03;100.00
69848;BME280;57143;55.940;37.496;2023-04-30T03:03:47;98396.13;;;9.00;100.00
69848;BME280;57143;55.940;37.496;2023-04-30T03:06:14;98378.84;;;9.57;100.00
69848;BME280;57143;55.940;37.496;2023-04-30T03:08:43;98335.84;;;10.82;100.00
69848;BME280;57143;55.940;37.496;2023-04-30T03:11:10;98398.91;;;10.39;100.00
69848;BME280;57143;55.940;37.496;2023-04-30T03:13:37;98392.34;;;11.59;100.00
69848;BME280;57143;55.940;37.496;2023-04-30T03:16:04;98419.31;;;12.56;100.00
69848;BME280;57143;55.940;37.496;2023-04-30T03:18:32;98547.00;;;12.51;100.00
69848;BME280;57143;55.940;37.496;2023-04-30T03:20:59;98578.69;;;12.99;100.00
69848;BME280;57143;55.940;37.496;2023-04-30T03:23:27;98653.97;;;11.97;100.00
69848;BME280;57143;55.940;37.496;2023-04-30T03:25:55;98642.63;;;12.74;100.00
69848;BME280;57143;55.940;37.496;2023-04-30T03:28:23;98682.50;;;11.61;100.00
69848;BME280;57143;55.940;37.496;2023-04-30T03:30:50;98617.16;;;13.49;100.00
69848;BME280;57143;55.940;37.496;2023-04-30T03:33:17;98664.03;;;13.19;100.00
69848;BME280;57143;55.940;37.496;2023-04-30T03:35:45;98687.72;;;12.44;100.00
69848;BME280;57143;55.940;37.496;2023-04-30T03:38:12;98668.69;;;14.02;100.00
69848;BME280;57143;55.940;37.496;2023-04-30T03:40:39;98730.03;;;13.68;100.00
69848;BME280;57143;55.940;37.496;2023-04-30T03:43:07;98732.94;;;13.98;100.00
69848;BME280;57143;55.940;37.496;2023-04-30T03:45:35;98737.72;;;14.69;100.00
69848;BME280;57143;55.940;37.496;2023-04-30T03:48:02;98744.59;;;14.82;100.00
69848;BME280;57143;55.940;37.496;2023-04-30T03:50:29;98758.78;;;14.84;100.00
69848;BME280;57143;55.940;37.496;2023-04-30T03:52:57;98783.84;;;14.86;100.00
69848;BME280;57143;55.940;37.496;2023-04-30T03:55:24;98771.16;;;15.12;100.00
69848;BME280;57143;55.940;37.496;2023-04-30T03:57:51;98794.84;;;15.01;100.00
69848;BME280;57143;55.940;37.496;2023-04-30T04:00:20;98779.78;;;14.83;100.00
69848;BME280;57143;55.940;37.496;2023-04-30T04:02:47;98787.94;;;14.73;100.00
69848;BME280;57143;55.940;37.496;2023-04-30T04:05:14;98784.72;;;14.96;100.00
69848;BME280;57143;55.940;37.496;2023-04-30T04:07:42;98793.31;;;14.17;100.00
69848;BME280;57143;55.940;37.496;2023-04-30T04:10:09;98780.41;;;14.07;100.00
69848;BME280;57143;55.940;37.496;2023-04-30T04:12:36;98762.06;;;14.29;100.00
69848;BME280;57143;55.940;37.496;2023-04-30T04:15:04;98752.38;;;14.58;100.00
69848;BME280;57143;55.940;37.496;2023-04-30T04:17:34;98770.88;;;15.23;100.00
69848;BME280;57143;55.940;37.496;2023-04-30T04:20:01;98804.50;;;14.67;100.00
69848;BME280;57143;55.940;37.496;2023-04-30T04:22:30;98773.31;;;15.10;100.00
69848;BME280;57143;55.940;37.496;2023-04-30T04:24:58;98785.19;;;15.75;100.00
69848;BME280;57143;55.940;37.496;2023-04-30T04:27:25;98822.59;;;15.70;100.00
69848;BME280;57143;55.940;37.496;2023-04-30T04:29:52;98817.91;;;15.45;100.00
69848;BME280;57143;55.940;37.496;2023-04-30T04:32:19;98826.97;;;15.71;100.00
69848;BME280;57143;55.940;37.496;2023-04-30T04:34:48;98822.88;;;15.78;100.00
69848;BME280;57143;55.940;37.496;2023-04-30T04:37:16;98840.66;;;14.94;100.00
69848;BME280;57143;55.940;37.496;2023-04-30T04:39:43;98813.03;;;15.77;100.00
69848;BME280;57143;55.940;37.496;2023-04-30T04:42:10;98833.19;;;14.74;100.00
69848;BME280;57143;55.940;37.496;2023-04-30T04:44:37;98814.56;;;14.56;100.00
69848;BME280;57143;55.940;37.496;2023-04-30T04:47:05;98800.69;;;14.21;100.00
69848;BME280;57143;55.940;37.496;2023-04-30T04:49:33;98801.25;;;13.28;100.00
69848;BME280;57143;55.940;37.496;2023-04-30T04:52:01;98767.41;;;14.19;100.00
69848;BME280;57143;55.940;37.496;2023-04-30T04:54:30;98782.44;;;14.22;100.00
69848;BME280;57143;55.940;37.496;2023-04-30T04:56:57;98776.81;;;14.33;100.00
69848;BME280;57143;55.940;37.496;2023-04-30T04:59:24;98781.78;;;13.41;100.00
69848;BME280;57143;55.940;37.496;2023-04-30T05:01:51;98772.03;;;13.77;100.00
69848;BME280;57143;55.940;37.496;2023-04-30T05:04:18;98786.31;;;13.31;100.00
69848;BME280;57143;55.940;37.496;2023-04-30T05:06:46;98781.72;;;14.00;100.00
69848;BME280;57143;55.940;37.496;2023-04-30T05:09:14;98793.59;;;13.83;100.00
69848;BME280;57143;55.940;37.496;2023-04-30T05:11:42;98781.97;;;13.98;100.00
69848;BME280;57143;55.940;37.496;2023-04-30T05:14:10;98788.38;;;13.77;100.00
69848;BME280;57143;55.940;37.496;2023-04-30T05:16:38;98795.56;;;13.93;100.00
69848;BME280;57143;55.940;37.496;2023-04-30T05:19:05;98786.91;;;14.38;100.00
69848;BME280;57143;55.940;37.496;2023-04-30T05:21:34;98806.25;;;14.36;100.00
69848;BME280;57143;55.940;37.496;2023-04-30T05:24:01;98808.56;;;14.18;100.00
69848;BME280;57143;55.940;37.496;2023-04-30T05:26:30;98786.69;;;15.06;100.00
69848;BME280;57143;55.940;37.496;2023-04-30T05:28:57;98833.84;;;15.01;100.00
69848;BME280;57143;55.940;37.496;2023-04-30T05:31:25;98817.00;;;15.10;100.00
69848;BME280;57143;55.940;37.496;2023-04-30T05:33:52;98841.91;;;14.71;100.00
69848;BME280;57143;55.940;37.496;2023-04-30T05:36:19;98838.00;;;15.14;100.00
69848;BME280;57143;55.940;37.496;2023-04-30T05:38:46;98843.06;;;14.80;100.00
69848;BME280;57143;55.940;37.496;2023-04-30T05:41:14;98862.03;;;13.12;100.00
69848;BME280;57143;55.940;37.496;2023-04-30T05:43:42;98814.31;;;14.21;100.00
69848;BME280;57143;55.940;37.496;2023-04-30T05:46:09;98856.91;;;13.96;100.00
69848;BME280;57143;55.940;37.496;2023-04-30T05:48:36;98838.78;;;13.79;100.00
69848;BME280;57143;55.940;37.496;2023-04-30T05:51:04;98840.97;;;13.51;100.00
69848;BME280;57143;55.940;37.496;2023-04-30T05:53:32;98819.97;;;14.51;100.00
69848;BME280;57143;55.940;37.496;2023-04-30T05:55:59;98831.28;;;14.70;100.00
69848;BME280;57143;55.940;37.496;2023-04-30T05:58:27;98848.69;;;15.26;100.00
69848;BME280;57143;55.940;37.496;2023-04-30T06:00:55;98861.09;;;14.40;100.00
69848;BME280;57143;55.940;37.496;2023-04-30T06:03:22;98878.97;;;13.94;100.00
69848;BME280;57143;55.940;37.496;2023-04-30T06:05:49;98885.59;;;14.08;100.00
69848;BME280;57143;55.940;37.496;2023-04-30T06:08:17;98904.28;;;13.41;100.00
69848;BME280;57143;55.940;37.496;2023-04-30T06:10:44;98892.59;;;14.26;100.00
69848;BME280;57143;55.940;37.496;2023-04-30T06:13:11;98883.84;;;14.60;100.00
69848;BME280;57143;55.940;37.496;2023-04-30T06:15:39;98891.66;;;14.15;100.00
69848;BME280;57143;55.940;37.496;2023-04-30T06:18:08;98903.50;;;14.62;100.00
69848;BME280;57143;55.940;37.496;2023-04-30T06:20:37;98906.19;;;14.57;100.00
69848;BME280;57143;55.940;37.496;2023-04-30T06:23:04;98907.13;;;14.36;100.00
69848;BME280;57143;55.940;37.496;2023-04-30T06:25:31;98909.69;;;14.48;100.00
69848;BME280;57143;55.940;37.496;2023-04-30T06:27:58;98900.66;;;14.84;100.00
69848;BME280;57143;55.940;37.496;2023-04-30T06:30:26;98890.03;;;15.44;100.00
69848;BME280;57143;55.940;37.496;2023-04-30T06:32:55;98904.88;;;15.12;100.00
69848;BME280;57143;55.940;37.496;2023-04-30T06:35:23;98931.28;;;14.96;100.00
69848;BME280;57143;55.940;37.496;2023-04-30T06:37:50;98931.44;;;14.79;100.00
69848;BME280;57143;55.940;37.496;2023-04-30T06:40:18;98916.09;;;14.68;100.00
69848;BME280;57143;55.940;37.496;2023-04-30T06:42:46;98893.81;;;14.81;100.00
69848;BME280;57143;55.940;37.496;2023-04-30T06:45:13;98877.63;;;14.65;100.00
69848;BME280;57143;55.940;37.496;2023-04-30T06:47:41;98868.41;;;14.81;100.00
69848;BME280;57143;55.940;37.496;2023-04-30T06:50:10;98861.75;;;15.14;100.00
69848;BME280;57143;55.940;37.496;2023-04-30T06:52:39;98871.56;;;15.04;100.00
69848;BME280;57143;55.940;37.496;2023-04-30T06:55:06;98855.34;;;14.83;100.00
69848;BME280;57143;55.940;37.496;2023-04-30T06:57:34;98840.56;;;14.79;100.00
69848;BME280;57143;55.940;37.496;2023-04-30T07:00:02;98822.66;;;14.46;100.00
69848;BME280;57143;55.940;37.496;2023-04-30T07:02:33;98787.00;;;14.53;100.00
69848;BME280;57143;55.940;37.496;2023-04-30T07:05:00;98787.97;;;14.32;100.00
69848;BME280;57143;55.940;37.496;2023-04-30T07:07:30;98769.47;;;14.39;100.00
69848;BME280;57143;55.940;37.496;2023-04-30T07:09:58;98849.97;;;14.51;100.00
69848;BME280;57143;55.940;37.496;2023-04-30T07:12:26;98851.53;;;14.37;100.00
69848;BME280;57143;55.940;37.496;2023-04-30T07:14:53;98800.41;;;14.59;100.00
69848;BME280;57143;55.940;37.496;2023-04-30T07:17:20;98779.88;;;14.47;100.00
69848;BME280;57143;55.940;37.496;2023-04-30T07:19:47;98751.69;;;14.98;100.00
69848;BME280;57143;55.940;37.496;2023-04-30T07:22:14;98798.94;;;14.42;100.00
69848;BME280;57143;55.940;37.496;2023-04-30T07:24:42;98802.94;;;13.93;100.00
69848;BME280;57143;55.940;37.496;2023-04-30T07:27:11;98799.38;;;13.60;100.00
69848;BME280;57143;55.940;37.496;2023-04-30T07:29:38;98759.41;;;13.66;100.00
69848;BME280;57143;55.940;37.496;2023-04-30T07:32:05;98714.91;;;13.50;100.00
69848;BME280;57143;55.940;37.496;2023-04-30T07:34:32;98641.38;;;13.87;100.00
69848;BME280;57143;55.940;37.496;2023-04-30T07:36:59;98595.25;;;13.75;100.00
69848;BME280;57143;55.940;37.496;2023-04-30T07:39:28;98560.91;;;13.64;100.00
69848;BME280;57143;55.940;37.496;2023-04-30T07:41:56;98564.31;;;13.45;100.00
69848;BME280;57143;55.940;37.496;2023-04-30T07:44:24;98456.03;;;13.52;100.00
69848;BME280;57143;55.940;37.496;2023-04-30T07:46:51;98363.25;;;13.88;100.00
69848;BME280;57143;55.940;37.496;2023-04-30T07:49:18;98204.75;;;13.76;100.00
69848;BME280;57143;55.940;37.496;2023-04-30T07:51:46;98127.41;;;13.72;100.00
69848;BME280;57143;55.940;37.496;2023-04-30T07:54:13;98084.22;;;13.46;100.00
69848;BME280;57143;55.940;37.496;2023-04-30T07:56:40;98106.78;;;13.41;100.00
69848;BME280;57143;55.940;37.496;2023-04-30T07:59:08;98136.19;;;13.49;100.00
69848;BME280;57143;55.940;37.496;2023-04-30T08:01:36;98168.28;;;13.17;100.00
69848;BME280;57143;55.940;37.496;2023-04-30T08:04:04;98154.13;;;13.20;100.00
69848;BME280;57143;55.940;37.496;2023-04-30T08:06:32;98153.00;;;13.01;100.00
69848;BME280;57143;55.940;37.496;2023-04-30T08:08:59;98097.53;;;12.97;100.00
69848;BME280;57143;55.940;37.496;2023-04-30T08:11:26;98092.53;;;12.34;100.00
69848;BME280;57143;55.940;37.496;2023-04-30T08:13:53;98093.44;;;12.64;100.00
69848;BME280;57143;55.940;37.496;2023-04-30T08:16:20;98126.06;;;12.79;100.00
69848;BME280;57143;55.940;37.496;2023-04-30T08:18:49;98105.66;;;12.57;100.00
69848;BME280;57143;55.940;37.496;2023-04-30T08:21:16;98121.94;;;12.47;100.00
69848;BME280;57143;55.940;37.496;2023-04-30T08:23:43;98105.03;;;12.30;100.00
69848;BME280;57143;55.940;37.496;2023-04-30T08:26:11;98098.50;;;12.26;100.00
69848;BME280;57143;55.940;37.496;2023-04-30T08:28:38;98061.75;;;12.03;100.00
69848;BME280;57143;55.940;37.496;2023-04-30T08:31:05;98019.69;;;12.06;100.00
69848;BME280;57143;55.940;37.496;2023-04-30T08:33:33;98050.94;;;12.18;100.00
69848;BME280;57143;55.940;37.496;2023-04-30T08:36:01;98055.84;;;12.16;100.00
69848;BME280;57143;55.940;37.496;2023-04-30T08:38:28;98050.59;;;11.95;100.00
69848;BME280;57143;55.940;37.496;2023-04-30T08:41:03;98043.81;;;11.87;100.00
69848;BME280;57143;55.940;37.496;2023-04-30T08:43:33;98071.59;;;11.62;100.00
69848;BME280;57143;55.940;37.496;2023-04-30T08:46:00;98089.41;;;11.85;100.00
69848;BME280;57143;55.940;37.496;2023-04-30T08:48:29;98077.09;;;11.68;100.00
69848;BME280;57143;55.940;37.496;2023-04-30T08:50:59;98067.44;;;11.92;100.00
69848;BME280;57143;55.940;37.496;2023-04-30T08:53:28;98036.28;;;12.14;100.00
69848;BME280;57143;55.940;37.496;2023-04-30T08:55:56;98058.78;;;12.05;100.00
69848;BME280;57143;55.940;37.496;2023-04-30T08:58:24;98095.75;;;12.11;100.00
69848;BME280;57143;55.940;37.496;2023-04-30T09:00:51;98085.16;;;12.14;100.00
69848;BME280;57143;55.940;37.496;2023-04-30T09:03:18;98082.94;;;12.01;100.00
69848;BME280;57143;55.940;37.496;2023-04-30T09:05:46;98083.41;;;11.83;100.00
69848;BME280;57143;55.940;37.496;2023-04-30T09:08:16;98040.56;;;11.95;100.00
69848;BME280;57143;55.940;37.496;2023-04-30T09:10:46;98117.44;;;12.01;100.00
69848;BME280;57143;55.940;37.496;2023-04-30T09:13:13;98085.31;;;11.88;100.00
69848;BME280;57143;55.940;37.496;2023-04-30T09:15:40;98062.31;;;12.10;100.00
69848;BME280;57143;55.940;37.496;2023-04-30T09:18:11;98084.25;;;11.89;100.00
69848;BME280;57143;55.940;37.496;2023-04-30T09:20:55;98071.59;;;11.57;100.00
69848;BME280;57143;55.940;37.496;2023-04-30T09:23:23;98046.81;;;11.44;100.00
69848;BME280;57143;55.940;37.496;2023-04-30T09:25:52;98038.44;;;11.50;100.00
69848;BME280;57143;55.940;37.496;2023-04-30T09:28:19;97984.81;;;11.68;100.00
69848;BME280;57143;55.940;37.496;2023-04-30T09:30:51;98038.31;;;11.77;100.00
69848;BME280;57143;55.940;37.496;2023-04-30T09:33:18;98035.13;;;11.90;100.00
69848;BME280;57143;55.940;37.496;2023-04-30T09:35:46;98044.88;;;11.91;100.00
69848;BME280;57143;55.940;37.496;2023-04-30T09:38:27;98073.56;;;11.67;100.00
69848;BME280;57143;55.940;37.496;2023-04-30T09:40:57;98064.78;;;11.55;100.00
69848;BME280;57143;55.940;37.496;2023-04-30T09:43:24;98065.56;;;11.50;100.00
69848;BME280;57143;55.940;37.496;2023-04-30T09:45:51;98072.19;;;11.65;100.00
69848;BME280;57143;55.940;37.496;2023-04-30T09:48:20;98065.06;;;11.58;100.00
69848;BME280;57143;55.940;37.496;2023-04-30T09:50:48;98087.53;;;11.96;100.00
69848;BME280;57143;55.940;37.496;2023-04-30T09:53:15;98115.50;;;11.96;100.00
69848;BME280;57143;55.940;37.496;2023-04-30T09:55:44;98113.59;;;11.92;100.00
69848;BME280;57143;55.940;37.496;2023-04-30T09:58:14;98128.84;;;12.03;100.00
69848;BME280;57143;55.940;37.496;2023-04-30T10:00:44;98119.75;;;11.82;100.00
69848;BME280;57143;55.940;37.496;2023-04-30T10:03:14;98120.00;;;11.76;100.00
69848;BME280;57143;55.940;37.496;2023-04-30T10:05:43;98111.19;;;12.00;100.00
69848;BME280;57143;55.940;37.496;2023-04-30T10:08:17;98125.19;;;11.82;100.00
69848;BME280;57143;55.940;37.496;2023-04-30T10:10:46;98098.13;;;11.97;100.00
69848;BME280;57143;55.940;37.496;2023-04-30T10:13:19;98108.00;;;11.67;100.00
69848;BME280;57143;55.940;37.496;2023-04-30T10:15:50;98111.09;;;11.80;100.00
69848;BME280;57143;55.940;37.496;2023-04-30T10:18:20;98123.25;;;11.73;100.00
69848;BME280;57143;55.940;37.496;2023-04-30T10:20:50;98131.16;;;11.79;100.00
69848;BME280;57143;55.940;37.496;2023-04-30T10:23:20;98144.34;;;12.12;100.00
69848;BME280;57143;55.940;37.496;2023-04-30T10:25:47;98090.75;;;11.93;100.00
69848;BME280;57143;55.940;37.496;2023-04-30T10:28:18;98135.06;;;11.98;100.00
69848;BME280;57143;55.940;37.496;2023-04-30T10:30:45;98158.13;;;11.96;100.00
69848;BME280;57143;55.940;37.496;2023-04-30T10:33:19;98156.19;;;11.91;100.00
69848;BME280;57143;55.940;37.496;2023-04-30T10:35:53;98143.09;;;11.78;100.00
69848;BME280;57143;55.940;37.496;2023-04-30T10:38:25;98137.38;;;11.75;100.00
69848;BME280;57143;55.940;37.496;2023-04-30T10:40:54;98103.09;;;11.27;100.00
69848;BME280;57143;55.940;37.496;2023-04-30T10:43:24;98110.63;;;11.56;100.00
69848;BME280;57143;55.940;37.496;2023-04-30T10:45:52;98170.50;;;11.72;100.00
69848;BME280;57143;55.940;37.496;2023-04-30T10:48:21;98175.91;;;11.72;100.00
69848;BME280;57143;55.940;37.496;2023-04-30T10:50:54;98183.53;;;11.75;100.00
69848;BME280;57143;55.940;37.496;2023-04-30T10:53:22;98159.41;;;11.83;100.00
69848;BME280;57143;55.940;37.496;2023-04-30T10:55:53;98151.31;;;11.93;100.00
69848;BME280;57143;55.940;37.496;2023-04-30T10:58:30;98168.41;;;11.89;100.00
69848;BME280;57143;55.940;37.496;2023-04-30T11:01:04;98178.72;;;11.87;100.00
69848;BME280;57143;55.940;37.496;2023-04-30T11:03:33;98168.88;;;11.76;100.00
69848;BME280;57143;55.940;37.496;2023-04-30T11:06:07;98172.84;;;11.63;100.00
69848;BME280;57143;55.940;37.496;2023-04-30T11:08:38;98152.53;;;11.66;100.00
69848;BME280;57143;55.940;37.496;2023-04-30T11:11:07;98152.03;;;11.79;100.00
69848;BME280;57143;55.940;37.496;2023-04-30T11:13:40;98161.06;;;11.89;100.00
69848;BME280;57143;55.940;37.496;2023-04-30T11:16:10;98154.75;;;11.79;100.00
69848;BME280;57143;55.940;37.496;2023-04-30T11:18:41;98125.97;;;11.73;100.00
69848;BME280;57143;55.940;37.496;2023-04-30T11:21:09;98151.50;;;11.72;100.00
69848;BME280;57143;55.940;37.496;2023-04-30T11:23:41;98118.16;;;11.86;100.00
69848;BME280;57143;55.940;37.496;2023-04-30T11:26:09;98107.03;;;11.88;100.00
69848;BME280;57143;55.940;37.496;2023-04-30T11:28:37;98120.94;;;12.01;100.00
69848;BME280;57143;55.940;37.496;2023-04-30T11:31:05;98129.47;;;12.20;100.00
69848;BME280;57143;55.940;37.496;2023-04-30T11:33:33;98118.13;;;12.48;100.00
69848;BME280;57143;55.940;37.496;2023-04-30T11:36:01;98184.06;;;12.23;100.00
69848;BME280;57143;55.940;37.496;2023-04-30T11:38:30;98201.75;;;12.31;100.00
69848;BME280;57143;55.940;37.496;2023-04-30T11:40:57;98156.34;;;12.16;100.00
69848;BME280;57143;55.940;37.496;2023-04-30T11:43:26;98160.41;;;12.19;100.00
69848;BME280;57143;55.940;37.496;2023-04-30T11:46:03;98168.06;;;12.27;100.00
69848;BME280;57143;55.940;37.496;2023-04-30T11:48:33;98132.69;;;12.17;100.00
69848;BME280;57143;55.940;37.496;2023-04-30T11:51:12;98129.50;;;12.30;100.00
69848;BME280;57143;55.940;37.496;2023-04-30T11:53:40;98114.78;;;12.26;100.00
69848;BME280;57143;55.940;37.496;2023-04-30T11:56:07;98110.09;;;12.06;100.00
69848;BME280;57143;55.940;37.496;2023-04-30T11:58:35;98119.44;;;12.30;100.00
69848;BME280;57143;55.940;37.496;2023-04-30T12:01:05;98130.56;;;12.34;100.00
69848;BME280;57143;55.940;37.496;2023-04-30T12:03:41;98118.09;;;12.43;100.00
69848;BME280;57143;55.940;37.496;2023-04-30T12:06:10;98118.31;;;12.21;100.00
69848;BME280;57143;55.940;37.496;2023-04-30T12:08:40;98156.16;;;12.48;100.00
69848;BME280;57143;55.940;37.496;2023-04-30T12:11:19;98164.38;;;12.58;100.00
69848;BME280;57143;55.940;37.496;2023-04-30T12:13:50;98141.22;;;12.50;100.00
69848;BME280;57143;55.940;37.496;2023-04-30T12:16:17;98136.63;;;12.51;100.00
69848;BME280;57143;55.940;37.496;2023-04-30T12:18:46;98195.00;;;12.38;100.00
69848;BME280;57143;55.940;37.496;2023-04-30T12:21:13;98217.38;;;12.04;100.00
69848;BME280;57143;55.940;37.496;2023-04-30T12:23:41;98236.63;;;11.97;100.00
69848;BME280;57143;55.940;37.496;2023-04-30T12:26:09;98205.09;;;11.96;100.00
69848;BME280;57143;55.940;37.496;2023-04-30T12:28:37;98229.19;;;12.34;100.00
69848;BME280;57143;55.940;37.496;2023-04-30T12:31:04;98262.31;;;12.26;100.00
69848;BME280;57143;55.940;37.496;2023-04-30T12:33:31;98234.59;;;12.24;100.00
69848;BME280;57143;55.940;37.496;2023-04-30T12:36:00;98214.84;;;12.39;100.00
69848;BME280;57143;55.940;37.496;2023-04-30T12:38:28;98232.78;;;12.40;100.00
69848;BME280;57143;55.940;37.496;2023-04-30T12:40:55;98215.63;;;11.88;100.00
69848;BME280;57143;55.940;37.496;2023-04-30T12:43:22;98133.44;;;11.97;100.00
69848;BME280;57143;55.940;37.496;2023-04-30T12:45:51;98117.19;;;12.07;100.00
69848;BME280;57143;55.940;37.496;2023-04-30T12:48:20;98106.25;;;11.92;100.00
69848;BME280;57143;55.940;37.496;2023-04-30T12:50:51;98038.88;;;11.84;100.00